Time;durP1;ratioP1;P1;durP2;ratioP2;P2;SDS_P1;SDS_P2;PMS_P1;PMS_P2;Temp;Humidity;BMP_temperature;BMP_pressure;BME280_temperature;BME280_humidity;BME280_pressure;Samples;Min_cycle;Max_cycle;Signal;HPM_P1;HPM_P2
2022/12/23 00:00:25;;;;;;;4.65;1.80;;;;;;;;;;4977748;28;92384;-62
2022/12/23 00:02:52;;;;;;;4.57;1.75;;;;;;;;;;4978134;28;92496;-61
2022/12/23 00:05:18;;;;;;;4.45;1.83;;;;;;;;;;4981220;28;92050;-62
2022/12/23 00:07:45;;;;;;;5.47;1.90;;;;;;;;;;4980231;28;92904;-62
2022/12/23 00:10:11;;;;;;;3.55;1.60;;;;;;;;;;4979184;28;92513;-62
2022/12/23 00:15:23;;;;;;;5.90;2.10;;;;;;;;;;4978406;28;92693;-62
2022/12/23 00:17:49;;;;;;;3.65;1.75;;;;;;;;;;4984613;28;92656;-62
2022/12/23 00:20:16;;;;;;;4.00;1.80;;;;;;;;;;4984534;28;92308;-61
2022/12/23 00:25:39;;;;;;;5.35;1.95;;;;;;;;;;4987047;28;92126;-65
2022/12/23 00:28:10;;;;;;;10.65;2.47;;;;;;;;;;4975377;28;92619;-61
2022/12/23 00:30:42;;;;;;;6.35;2.15;;;;;;;;;;4984480;28;91398;-62
2022/12/23 00:33:09;;;;;;;7.38;2.15;;;;;;;;;;4984523;28;92365;-62
2022/12/23 00:35:35;;;;;;;6.75;3.00;;;;;;;;;;4971311;28;93043;-62
2022/12/23 00:38:01;;;;;;;7.00;2.40;;;;;;;;;;4982934;28;95053;-63
2022/12/23 00:43:12;;;;;;;8.45;2.75;;;;;;;;;;4984166;28;93578;-62
2022/12/23 00:45:39;;;;;;;7.95;2.97;;;;;;;;;;4983831;28;92614;-62
2022/12/23 00:50:51;;;;;;;9.57;3.03;;;;;;;;;;4980066;28;91982;-61
2022/12/23 00:53:18;;;;;;;8.57;2.70;;;;;;;;;;4984221;28;92322;-62
2022/12/23 00:55:46;;;;;;;7.88;3.00;;;;;;;;;;4984168;28;93101;-64
2022/12/23 00:58:13;;;;;;;7.55;2.90;;;;;;;;;;4984123;28;92279;-62
2022/12/23 01:06:10;;;;;;;6.72;2.55;;;;;;;;;;4983686;28;92236;-61
2022/12/23 01:08:37;;;;;;;8.00;2.58;;;;;;;;;;4983592;28;93608;-64
2022/12/23 01:11:04;;;;;;;7.32;2.60;;;;;;;;;;4986495;28;92003;-64
2022/12/23 01:13:31;;;;;;;8.23;2.90;;;;;;;;;;4979045;28;92272;-64
2022/12/23 01:16:02;;;;;;;7.22;3.00;;;;;;;;;;4983674;28;92616;-62
2022/12/23 01:18:28;;;;;;;7.35;2.72;;;;;;;;;;4983767;28;92527;-64
2022/12/23 01:20:54;;;;;;;7.22;2.60;;;;;;;;;;4984054;28;92432;-62
2022/12/23 01:23:21;;;;;;;7.85;2.60;;;;;;;;;;4983530;28;92223;-63
2022/12/23 01:25:54;;;;;;;8.40;3.17;;;;;;;;;;4983262;28;92751;-63
2022/12/23 01:28:20;;;;;;;7.85;2.60;;;;;;;;;;4980300;28;94639;-63
2022/12/23 01:30:47;;;;;;;8.32;2.85;;;;;;;;;;4983395;28;93323;-63
2022/12/23 01:33:13;;;;;;;8.95;2.90;;;;;;;;;;4986424;28;92779;-63
2022/12/23 01:35:39;;;;;;;6.18;2.72;;;;;;;;;;4975850;28;92428;-64
2022/12/23 01:38:06;;;;;;;8.18;2.92;;;;;;;;;;4983554;28;92544;-62
2022/12/23 01:40:36;;;;;;;7.18;2.97;;;;;;;;;;4987241;28;92437;-62
2022/12/23 01:43:02;;;;;;;8.43;3.42;;;;;;;;;;4983265;28;94604;-61
2022/12/23 01:45:29;;;;;;;7.53;2.83;;;;;;;;;;4983210;28;91299;-62
2022/12/23 01:47:57;;;;;;;7.68;2.67;;;;;;;;;;4983307;28;92598;-61
2022/12/23 01:50:31;;;;;;;7.63;2.83;;;;;;;;;;4986057;28;93512;-62
2022/12/23 01:53:07;;;;;;;9.98;2.90;;;;;;;;;;4984699;28;94477;-62
2022/12/23 01:55:45;;;;;;;9.05;3.00;;;;;;;;;;4982461;28;92738;-61
2022/12/23 01:58:23;;;;;;;9.25;2.80;;;;;;;;;;4983696;28;92448;-62
2022/12/23 02:03:42;;;;;;;6.70;2.67;;;;;;;;;;4977130;28;92541;-62
2022/12/23 02:09:17;;;;;;;9.23;2.83;;;;;;;;;;4981402;28;92189;-62
2022/12/23 02:12:02;;;;;;;7.85;2.58;;;;;;;;;;4983273;28;91223;-62
2022/12/23 02:17:42;;;;;;;7.13;2.47;;;;;;;;;;4985980;28;92805;-62
2022/12/23 02:20:20;;;;;;;8.45;2.40;;;;;;;;;;4968132;28;94781;-62
2022/12/23 02:22:58;;;;;;;6.63;2.33;;;;;;;;;;4982821;28;94591;-62
2022/12/23 02:25:41;;;;;;;5.70;2.28;;;;;;;;;;4973874;28;92239;-62
2022/12/23 02:28:25;;;;;;;7.50;2.35;;;;;;;;;;4982743;28;92083;-62
2022/12/23 02:30:59;;;;;;;6.13;2.08;;;;;;;;;;4982902;28;92418;-64
2022/12/23 02:33:31;;;;;;;7.15;2.38;;;;;;;;;;4982075;28;93558;-63
2022/12/23 02:36:09;;;;;;;7.20;2.33;;;;;;;;;;4974848;28;92348;-64
2022/12/23 02:38:38;;;;;;;6.80;2.40;;;;;;;;;;4982471;28;92346;-62
2022/12/23 02:41:14;;;;;;;5.70;2.28;;;;;;;;;;4985031;28;93107;-62
2022/12/23 02:43:44;;;;;;;9.05;2.10;;;;;;;;;;4982302;28;92897;-68
2022/12/23 02:46:10;;;;;;;4.78;1.98;;;;;;;;;;4980104;28;95032;-62
2022/12/23 02:48:56;;;;;;;7.13;2.03;;;;;;;;;;4983920;28;92114;-64
2022/12/23 02:51:25;;;;;;;7.15;2.10;;;;;;;;;;4990760;28;93434;-65
2022/12/23 02:53:54;;;;;;;5.63;1.90;;;;;;;;;;4981991;28;92615;-62
2022/12/23 02:56:22;;;;;;;4.28;1.60;;;;;;;;;;4981947;28;93741;-61
2022/12/23 02:58:52;;;;;;;4.53;1.80;;;;;;;;;;4981996;28;92552;-62
2022/12/23 03:01:19;;;;;;;6.10;1.90;;;;;;;;;;4982013;28;92670;-62
2022/12/23 03:03:46;;;;;;;6.72;1.80;;;;;;;;;;4985634;28;91333;-63
2022/12/23 03:06:16;;;;;;;6.82;1.90;;;;;;;;;;4982115;28;93106;-62
2022/12/23 03:08:43;;;;;;;5.95;1.80;;;;;;;;;;4981306;28;92078;-62
2022/12/23 03:11:14;;;;;;;4.78;1.88;;;;;;;;;;4980613;28;94766;-64
2022/12/23 03:13:40;;;;;;;7.47;2.03;;;;;;;;;;4981776;28;92848;-63
2022/12/23 03:16:27;;;;;;;5.72;1.95;;;;;;;;;;4981922;28;92082;-63
2022/12/23 03:18:53;;;;;;;5.50;1.80;;;;;;;;;;4977818;28;92247;-64
2022/12/23 03:21:22;;;;;;;5.55;1.83;;;;;;;;;;4978494;28;93246;-63
2022/12/23 03:23:55;;;;;;;4.95;2.00;;;;;;;;;;4981954;28;92851;-63
2022/12/23 03:26:25;;;;;;;5.03;1.70;;;;;;;;;;4983501;28;92420;-63
2022/12/23 03:28:59;;;;;;;6.03;1.88;;;;;;;;;;4992633;28;91309;-63
2022/12/23 03:31:28;;;;;;;4.88;2.10;;;;;;;;;;4984333;28;92563;-63
2022/12/23 03:34:04;;;;;;;6.57;1.90;;;;;;;;;;4980543;28;92756;-62
2022/12/23 03:36:37;;;;;;;6.00;1.77;;;;;;;;;;4977621;28;94476;-62
2022/12/23 03:39:06;;;;;;;6.50;1.90;;;;;;;;;;4981759;28;95081;-64
2022/12/23 03:41:35;;;;;;;5.78;1.88;;;;;;;;;;4981667;28;93131;-64
2022/12/23 03:44:04;;;;;;;4.70;1.70;;;;;;;;;;4981607;28;92487;-64
2022/12/23 03:46:33;;;;;;;6.47;1.90;;;;;;;;;;4984487;28;92323;-64
2022/12/23 03:49:02;;;;;;;5.68;2.00;;;;;;;;;;4984675;28;92087;-63
2022/12/23 03:51:51;;;;;;;5.75;1.70;;;;;;;;;;4986896;28;92218;-62
2022/12/23 03:54:25;;;;;;;6.40;2.03;;;;;;;;;;4981911;28;91878;-62
2022/12/23 03:57:00;;;;;;;5.22;1.70;;;;;;;;;;4981753;28;91995;-64
2022/12/23 03:59:29;;;;;;;6.28;1.92;;;;;;;;;;4980406;28;92623;-64
2022/12/23 04:01:55;;;;;;;5.03;1.90;;;;;;;;;;4978927;28;96395;-64
2022/12/23 04:04:32;;;;;;;4.55;1.60;;;;;;;;;;4981500;28;92454;-63
2022/12/23 04:07:02;;;;;;;4.88;1.58;;;;;;;;;;4981499;28;92455;-64
2022/12/23 04:09:28;;;;;;;5.32;1.67;;;;;;;;;;4983326;28;92664;-64
2022/12/23 04:11:56;;;;;;;5.10;1.90;;;;;;;;;;4981289;28;94393;-64
2022/12/23 04:14:23;;;;;;;4.47;1.75;;;;;;;;;;4981186;28;92210;-62
2022/12/23 04:16:52;;;;;;;4.38;1.60;;;;;;;;;;4981296;28;92478;-61
2022/12/23 04:19:18;;;;;;;4.95;1.50;;;;;;;;;;4981344;28;91904;-62
2022/12/23 04:21:45;;;;;;;3.63;1.52;;;;;;;;;;4980785;28;92951;-62
2022/12/23 04:24:11;;;;;;;5.75;1.80;;;;;;;;;;4981108;28;92006;-62
2022/12/23 04:26:37;;;;;;;4.35;1.60;;;;;;;;;;4979810;28;94642;-62
2022/12/23 04:29:04;;;;;;;4.30;1.70;;;;;;;;;;4980400;28;92042;-61
2022/12/23 04:31:30;;;;;;;5.10;1.80;;;;;;;;;;4984248;28;92501;-62
2022/12/23 04:33:57;;;;;;;4.53;1.50;;;;;;;;;;4980800;28;93113;-62
2022/12/23 04:36:23;;;;;;;6.13;1.77;;;;;;;;;;4981233;28;92064;-62
2022/12/23 04:38:49;;;;;;;4.22;1.50;;;;;;;;;;4981142;28;92503;-62
2022/12/23 04:41:16;;;;;;;4.05;1.60;;;;;;;;;;4980666;28;92776;-62
2022/12/23 04:43:42;;;;;;;4.28;1.52;;;;;;;;;;4981217;28;92718;-62
2022/12/23 04:46:16;;;;;;;4.20;1.60;;;;;;;;;;4981310;28;92171;-61
2022/12/23 04:48:42;;;;;;;5.38;1.60;;;;;;;;;;4983361;28;93788;-61
2022/12/23 04:51:08;;;;;;;5.43;1.60;;;;;;;;;;4985100;28;94539;-61
2022/12/23 04:53:36;;;;;;;5.18;1.77;;;;;;;;;;4983620;28;95970;-63
2022/12/23 04:56:03;;;;;;;4.85;1.50;;;;;;;;;;4980938;28;92491;-64
2022/12/23 04:58:29;;;;;;;4.18;1.60;;;;;;;;;;4981080;28;92485;-63
2022/12/23 05:01:03;;;;;;;3.97;1.60;;;;;;;;;;4982553;28;92643;-64
2022/12/23 05:03:30;;;;;;;3.53;1.50;;;;;;;;;;4984100;28;92513;-63
2022/12/23 05:05:56;;;;;;;3.53;1.50;;;;;;;;;;4983963;28;92319;-63
2022/12/23 05:08:23;;;;;;;4.82;1.50;;;;;;;;;;4984362;28;92942;-63
2022/12/23 05:10:49;;;;;;;4.53;1.80;;;;;;;;;;4984115;28;92232;-63
2022/12/23 05:13:15;;;;;;;5.70;1.55;;;;;;;;;;4983828;28;92517;-62
2022/12/23 05:15:42;;;;;;;5.40;1.70;;;;;;;;;;4985247;28;94971;-63
2022/12/23 05:18:09;;;;;;;4.57;1.88;;;;;;;;;;4984051;28;94753;-63
2022/12/23 05:20:35;;;;;;;4.13;1.50;;;;;;;;;;4983210;28;92735;-63
2022/12/23 05:23:02;;;;;;;3.78;1.60;;;;;;;;;;4983873;28;92048;-62
2022/12/23 05:25:28;;;;;;;3.55;1.50;;;;;;;;;;4983268;28;92267;-63
2022/12/23 05:27:54;;;;;;;4.40;1.90;;;;;;;;;;4983712;28;92604;-63
2022/12/23 05:30:21;;;;;;;4.93;1.70;;;;;;;;;;4983700;28;92841;-63
2022/12/23 05:32:51;;;;;;;4.07;1.60;;;;;;;;;;4984069;28;92872;-62
2022/12/23 05:35:17;;;;;;;4.40;1.75;;;;;;;;;;4982476;28;93379;-64
2022/12/23 05:37:44;;;;;;;6.25;1.90;;;;;;;;;;4986626;28;92415;-64
2022/12/23 05:40:10;;;;;;;4.20;1.70;;;;;;;;;;4981586;28;95221;-64
2022/12/23 05:42:37;;;;;;;4.80;2.00;;;;;;;;;;4983629;28;92367;-64
2022/12/23 05:45:03;;;;;;;6.82;2.70;;;;;;;;;;4983181;28;93252;-64
2022/12/23 05:47:30;;;;;;;8.45;3.00;;;;;;;;;;4983229;28;92571;-62
2022/12/23 05:49:56;;;;;;;8.10;3.20;;;;;;;;;;4991533;28;92384;-63
2022/12/23 05:52:22;;;;;;;8.82;3.50;;;;;;;;;;4983423;28;92214;-64
2022/12/23 05:54:49;;;;;;;7.72;3.13;;;;;;;;;;4982799;28;92559;-63
2022/12/23 05:57:15;;;;;;;7.15;3.08;;;;;;;;;;4986473;28;91374;-64
2022/12/23 05:59:42;;;;;;;6.40;2.75;;;;;;;;;;4982798;28;92525;-63
2022/12/23 06:02:08;;;;;;;7.55;2.80;;;;;;;;;;4983214;28;92071;-64
2022/12/23 06:04:35;;;;;;;7.20;2.83;;;;;;;;;;4981579;28;94472;-63
2022/12/23 06:07:01;;;;;;;7.47;2.80;;;;;;;;;;4982847;28;93088;-64
2022/12/23 06:09:27;;;;;;;7.63;3.15;;;;;;;;;;4982140;28;93339;-64
2022/12/23 06:11:54;;;;;;;7.68;3.42;;;;;;;;;;4982649;28;92505;-64
2022/12/23 06:14:20;;;;;;;8.82;3.30;;;;;;;;;;4982485;28;92038;-63
2022/12/23 06:16:54;;;;;;;8.10;3.10;;;;;;;;;;4981761;28;92138;-63
2022/12/23 06:19:20;;;;;;;7.53;2.92;;;;;;;;;;4985760;28;92210;-62
2022/12/23 06:21:47;;;;;;;8.48;2.92;;;;;;;;;;4983088;28;91671;-62
2022/12/23 06:24:13;;;;;;;7.68;2.95;;;;;;;;;;4982619;28;92208;-63
2022/12/23 06:26:40;;;;;;;9.18;2.55;;;;;;;;;;4982544;28;92754;-62
2022/12/23 06:29:06;;;;;;;7.13;2.38;;;;;;;;;;4980877;28;94424;-63
2022/12/23 06:31:33;;;;;;;7.38;2.47;;;;;;;;;;4982747;28;94657;-63
2022/12/23 06:33:59;;;;;;;6.68;2.40;;;;;;;;;;4980611;28;92731;-63
2022/12/23 06:36:26;;;;;;;7.47;2.50;;;;;;;;;;4981746;28;92614;-63
2022/12/23 06:38:52;;;;;;;7.00;2.28;;;;;;;;;;4982566;28;93259;-62
2022/12/23 06:41:18;;;;;;;7.70;2.30;;;;;;;;;;4985601;28;92572;-62
2022/12/23 06:43:45;;;;;;;5.38;1.88;;;;;;;;;;4982712;28;92066;-62
2022/12/23 06:46:17;;;;;;;5.05;1.95;;;;;;;;;;4982515;28;92153;-62
2022/12/23 06:48:44;;;;;;;5.13;1.90;;;;;;;;;;4984748;28;93953;-63
2022/12/23 06:51:11;;;;;;;5.45;1.70;;;;;;;;;;4987457;28;92805;-63
2022/12/23 06:53:38;;;;;;;4.90;2.00;;;;;;;;;;4980353;28;96096;-63
2022/12/23 06:56:04;;;;;;;5.07;1.90;;;;;;;;;;4982403;28;92334;-62
2022/12/23 06:58:30;;;;;;;5.53;1.67;;;;;;;;;;4978163;28;93363;-62
2022/12/23 07:00:57;;;;;;;5.60;1.75;;;;;;;;;;4982434;28;93197;-63
2022/12/23 07:03:23;;;;;;;6.00;1.85;;;;;;;;;;4985389;28;92250;-63
2022/12/23 07:05:50;;;;;;;5.38;1.77;;;;;;;;;;4981619;28;93249;-62
2022/12/23 07:08:17;;;;;;;6.10;2.08;;;;;;;;;;4981575;28;93667;-62
2022/12/23 07:10:44;;;;;;;5.13;1.80;;;;;;;;;;4982420;28;93294;-62
2022/12/23 07:13:11;;;;;;;6.32;1.70;;;;;;;;;;4981821;28;92707;-62
2022/12/23 07:15:38;;;;;;;4.70;1.83;;;;;;;;;;4981817;28;92488;-62
2022/12/23 07:18:04;;;;;;;5.95;1.70;;;;;;;;;;4980588;28;94595;-63
2022/12/23 07:20:31;;;;;;;4.30;1.70;;;;;;;;;;4981606;28;92602;-62
2022/12/23 07:22:57;;;;;;;4.32;1.75;;;;;;;;;;4981677;28;92597;-62
2022/12/23 07:25:24;;;;;;;4.85;1.90;;;;;;;;;;4984719;28;92631;-63
2022/12/23 07:27:56;;;;;;;4.25;1.70;;;;;;;;;;4986248;28;92648;-63
2022/12/23 07:30:23;;;;;;;4.80;1.58;;;;;;;;;;4989988;28;92433;-63
2022/12/23 07:32:49;;;;;;;4.53;1.50;;;;;;;;;;4981375;28;92634;-62
2022/12/23 07:35:16;;;;;;;5.05;1.88;;;;;;;;;;4979800;28;91559;-62
2022/12/23 07:37:42;;;;;;;5.15;1.60;;;;;;;;;;4981553;28;92007;-62
2022/12/23 07:40:09;;;;;;;5.35;1.63;;;;;;;;;;4978797;28;92610;-62
2022/12/23 07:42:36;;;;;;;4.97;1.80;;;;;;;;;;4979934;28;94756;-62
2022/12/23 07:45:12;;;;;;;4.45;1.63;;;;;;;;;;4981604;28;94627;-63
2022/12/23 07:47:38;;;;;;;6.45;2.20;;;;;;;;;;4984621;28;93156;-62
2022/12/23 07:50:05;;;;;;;7.50;2.13;;;;;;;;;;4985551;28;92605;-62
2022/12/23 07:52:31;;;;;;;5.53;2.22;;;;;;;;;;4981180;28;92618;-62
2022/12/23 07:54:57;;;;;;;5.20;2.00;;;;;;;;;;4981527;28;92261;-62
2022/12/23 07:57:24;;;;;;;5.57;2.10;;;;;;;;;;4981767;28;92377;-62
2022/12/23 07:59:50;;;;;;;5.05;2.00;;;;;;;;;;4981647;28;91498;-62
2022/12/23 08:02:16;;;;;;;4.00;1.73;;;;;;;;;;4981509;28;92370;-62
2022/12/23 08:04:43;;;;;;;9.88;1.98;;;;;;;;;;4981414;28;93207;-62
2022/12/23 08:07:11;;;;;;;7.95;2.22;;;;;;;;;;4982686;28;95035;-62
2022/12/23 08:09:38;;;;;;;5.68;1.92;;;;;;;;;;4980799;28;94886;-62
2022/12/23 08:12:04;;;;;;;6.38;1.80;;;;;;;;;;4970453;28;92592;-62
2022/12/23 08:14:31;;;;;;;6.63;1.75;;;;;;;;;;4965700;28;95649;-62
2022/12/23 08:16:57;;;;;;;5.18;1.75;;;;;;;;;;4961104;28;92424;-63
2022/12/23 08:19:23;;;;;;;4.82;1.70;;;;;;;;;;4969802;28;93086;-62
2022/12/23 08:21:50;;;;;;;5.68;1.92;;;;;;;;;;4981441;28;92927;-61
2022/12/23 08:24:16;;;;;;;5.15;2.00;;;;;;;;;;4981211;28;92592;-64
2022/12/23 08:26:43;;;;;;;5.30;1.90;;;;;;;;;;4981173;28;92580;-62
2022/12/23 08:29:09;;;;;;;4.90;1.70;;;;;;;;;;4984108;28;92543;-64
2022/12/23 08:31:35;;;;;;;6.38;1.80;;;;;;;;;;4979490;28;94976;-64
2022/12/23 08:34:02;;;;;;;6.13;1.90;;;;;;;;;;4980389;28;92108;-64
2022/12/23 08:36:31;;;;;;;5.32;1.65;;;;;;;;;;4983989;28;92190;-64
2022/12/23 08:38:59;;;;;;;3.33;1.50;;;;;;;;;;4984263;28;92615;-64
2022/12/23 08:41:27;;;;;;;5.72;1.63;;;;;;;;;;4984253;28;92392;-63
2022/12/23 08:43:54;;;;;;;3.85;1.70;;;;;;;;;;4983928;28;92791;-64
2022/12/23 08:46:21;;;;;;;5.60;1.52;;;;;;;;;;4983096;28;92937;-63
2022/12/23 08:48:47;;;;;;;4.55;1.50;;;;;;;;;;4978054;28;91369;-63
2022/12/23 08:51:16;;;;;;;4.30;1.67;;;;;;;;;;4966682;28;92194;-64
2022/12/23 08:53:43;;;;;;;4.57;1.40;;;;;;;;;;4963677;28;92246;-63
2022/12/23 08:56:17;;;;;;;4.40;1.42;;;;;;;;;;4963849;28;94788;-64
2022/12/23 08:58:44;;;;;;;4.20;1.40;;;;;;;;;;4963321;28;92732;-62
2022/12/23 09:01:12;;;;;;;4.57;1.58;;;;;;;;;;4965071;28;92321;-62
2022/12/23 09:03:39;;;;;;;5.90;1.45;;;;;;;;;;4964225;28;92342;-62
2022/12/23 09:06:06;;;;;;;4.90;1.50;;;;;;;;;;4963869;28;93940;-61
2022/12/23 09:08:33;;;;;;;8.93;1.50;;;;;;;;;;4965633;28;93463;-63
2022/12/23 09:11:00;;;;;;;6.85;1.67;;;;;;;;;;4975043;28;92425;-63
2022/12/23 09:13:26;;;;;;;9.38;1.50;;;;;;;;;;4967008;28;92685;-64
2022/12/23 09:16:01;;;;;;;8.13;1.60;;;;;;;;;;4981262;28;91952;-61
2022/12/23 09:18:27;;;;;;;6.90;1.55;;;;;;;;;;4981527;28;92452;-61
2022/12/23 09:21:01;;;;;;;6.00;1.52;;;;;;;;;;4968811;28;94785;-63
2022/12/23 09:23:27;;;;;;;9.68;1.52;;;;;;;;;;4982512;28;94974;-64
2022/12/23 09:25:54;;;;;;;5.32;1.67;;;;;;;;;;4974869;28;93021;-64
2022/12/23 09:28:21;;;;;;;6.22;1.80;;;;;;;;;;4982740;28;92192;-63
2022/12/23 09:30:47;;;;;;;6.55;1.60;;;;;;;;;;4982437;28;92747;-63
2022/12/23 09:33:14;;;;;;;4.03;1.60;;;;;;;;;;4982611;28;92488;-64
2022/12/23 09:35:40;;;;;;;6.88;1.60;;;;;;;;;;4983517;28;92456;-63
2022/12/23 09:38:07;;;;;;;5.32;1.50;;;;;;;;;;4982480;28;92052;-64
2022/12/23 09:40:34;;;;;;;5.43;1.80;;;;;;;;;;4982352;28;92669;-63
2022/12/23 09:43:16;;;;;;;4.85;1.40;;;;;;;;;;4982732;28;92636;-63
2022/12/23 09:45:47;;;;;;;5.57;1.60;;;;;;;;;;4980278;28;95330;-64
2022/12/23 09:48:16;;;;;;;7.13;1.60;;;;;;;;;;4983102;28;92378;-63
2022/12/23 09:50:43;;;;;;;5.68;1.63;;;;;;;;;;4986501;28;93448;-64
2022/12/23 09:53:14;;;;;;;6.00;1.63;;;;;;;;;;4981094;28;93697;-64
2022/12/23 09:55:46;;;;;;;4.80;1.60;;;;;;;;;;4980984;28;92152;-64
2022/12/23 09:58:30;;;;;;;5.25;1.70;;;;;;;;;;4984367;28;92465;-63
2022/12/23 10:01:13;;;;;;;6.05;1.75;;;;;;;;;;4981974;28;92559;-63
2022/12/23 10:03:57;;;;;;;5.80;2.00;;;;;;;;;;4981779;28;92350;-64
2022/12/23 10:06:29;;;;;;;5.95;1.63;;;;;;;;;;4982196;28;92298;-64
2022/12/23 10:09:00;;;;;;;5.95;1.70;;;;;;;;;;4982193;28;92446;-64
2022/12/23 10:11:29;;;;;;;5.70;1.60;;;;;;;;;;4981428;28;94748;-64
2022/12/23 10:14:08;;;;;;;5.20;1.60;;;;;;;;;;4981487;28;92958;-63
2022/12/23 10:16:37;;;;;;;6.07;1.80;;;;;;;;;;4971752;28;92170;-64
2022/12/23 10:19:07;;;;;;;5.65;1.90;;;;;;;;;;4984660;28;93303;-64
2022/12/23 10:21:33;;;;;;;8.02;2.05;;;;;;;;;;4981282;28;92141;-64
2022/12/23 10:24:03;;;;;;;7.85;2.28;;;;;;;;;;4982333;28;92482;-63
2022/12/23 10:26:31;;;;;;;6.93;2.30;;;;;;;;;;4977029;28;92890;-63
2022/12/23 10:28:57;;;;;;;;;;;;;;;;;;4977130;28;91611;-64
2022/12/23 10:31:35;;;;;;;7.07;2.30;;;;;;;;;;4983187;28;113310;-64
2022/12/23 10:34:12;;;;;;;6.88;2.47;;;;;;;;;;4979585;28;92549;-64
2022/12/23 10:37:01;;;;;;;8.40;2.30;;;;;;;;;;4979214;28;94819;-64
2022/12/23 10:39:34;;;;;;;6.40;2.33;;;;;;;;;;4981747;28;96026;-64
2022/12/23 10:42:26;;;;;;;5.28;2.08;;;;;;;;;;4984816;28;93932;-64
2022/12/23 10:45:06;;;;;;;5.72;2.15;;;;;;;;;;4965574;28;93044;-64
2022/12/23 10:47:32;;;;;;;;;;;;;;;;;;4972603;28;92548;-63
2022/12/23 10:50:07;;;;;;;6.05;2.17;;;;;;;;;;4982616;28;116710;-64
2022/12/23 10:52:36;;;;;;;7.07;1.80;;;;;;;;;;4979012;28;93929;-63
2022/12/23 10:55:03;;;;;;;5.60;2.10;;;;;;;;;;4981401;28;91985;-64
2022/12/23 10:57:30;;;;;;;7.40;2.08;;;;;;;;;;4980018;28;92559;-62
2022/12/23 10:59:57;;;;;;;5.95;2.00;;;;;;;;;;4981359;28;92307;-61
2022/12/23 11:02:26;;;;;;;5.82;2.00;;;;;;;;;;4979513;28;94830;-64
2022/12/23 11:04:52;;;;;;;7.30;2.20;;;;;;;;;;4967420;28;92661;-64
2022/12/23 11:07:20;;;;;;;7.00;1.80;;;;;;;;;;4961647;28;92866;-63
2022/12/23 11:10:14;;;;;;;4.85;1.80;;;;;;;;;;4979591;28;93234;-63
2022/12/23 11:12:46;;;;;;;5.50;1.77;;;;;;;;;;4970924;28;92367;-64
2022/12/23 11:15:32;;;;;;;4.75;1.92;;;;;;;;;;4979318;28;93692;-64
2022/12/23 11:18:11;;;;;;;5.60;2.13;;;;;;;;;;4980900;28;92095;-64
2022/12/23 11:20:39;;;;;;;5.18;1.75;;;;;;;;;;4981177;28;92353;-65
2022/12/23 11:23:22;;;;;;;4.85;1.80;;;;;;;;;;4981654;28;93221;-64
2022/12/23 11:25:58;;;;;;;6.32;2.00;;;;;;;;;;4981362;28;92665;-61
2022/12/23 11:28:25;;;;;;;7.22;2.13;;;;;;;;;;4982595;28;94354;-62
2022/12/23 11:30:56;;;;;;;6.97;2.15;;;;;;;;;;4981018;28;92023;-62
2022/12/23 11:33:30;;;;;;;8.10;2.13;;;;;;;;;;4979933;28;92411;-62
2022/12/23 11:36:01;;;;;;;6.05;2.08;;;;;;;;;;4974386;28;92573;-64
2022/12/23 11:38:27;;;;;;;6.90;2.22;;;;;;;;;;4978612;28;92470;-64
2022/12/23 11:40:54;;;;;;;13.55;2.67;;;;;;;;;;4981220;28;93374;-63
2022/12/23 11:43:21;;;;;;;7.10;2.40;;;;;;;;;;4981527;28;92587;-63
2022/12/23 11:46:08;;;;;;;6.43;2.10;;;;;;;;;;4981280;28;91507;-64
2022/12/23 11:48:34;;;;;;;7.43;2.70;;;;;;;;;;4982489;28;93013;-61
2022/12/23 11:51:02;;;;;;;9.23;3.10;;;;;;;;;;4984551;28;92692;-62
2022/12/23 11:53:28;;;;;;;9.80;3.40;;;;;;;;;;4979494;28;94695;-64
2022/12/23 11:55:55;;;;;;;9.93;3.65;;;;;;;;;;4979701;28;92639;-63
2022/12/23 11:58:22;;;;;;;8.40;3.40;;;;;;;;;;4978571;28;92220;-61
2022/12/23 12:00:54;;;;;;;8.88;3.40;;;;;;;;;;4980688;28;95135;-62
2022/12/23 12:03:23;;;;;;;15.85;3.75;;;;;;;;;;4979475;28;93166;-64
2022/12/23 12:05:51;;;;;;;9.20;3.42;;;;;;;;;;4980329;28;92069;-62
2022/12/23 12:08:19;;;;;;;8.27;3.60;;;;;;;;;;4980369;28;92293;-63
2022/12/23 12:10:49;;;;;;;9.15;3.50;;;;;;;;;;4983732;28;91856;-63
2022/12/23 12:13:22;;;;;;;7.25;3.30;;;;;;;;;;4981369;28;95087;-62
2022/12/23 12:16:07;;;;;;;8.75;3.47;;;;;;;;;;4980938;28;93708;-61
2022/12/23 12:18:34;;;;;;;8.00;4.07;;;;;;;;;;4982808;28;94514;-61
2022/12/23 12:21:04;;;;;;;9.07;3.58;;;;;;;;;;4984176;28;95694;-60
2022/12/23 12:23:33;;;;;;;15.63;3.95;;;;;;;;;;4984036;28;92706;-64
2022/12/23 12:26:10;;;;;;;8.00;3.58;;;;;;;;;;4983863;28;92290;-62
2022/12/23 12:28:38;;;;;;;8.27;3.83;;;;;;;;;;4983286;28;92640;-61
2022/12/23 12:31:13;;;;;;;10.30;3.58;;;;;;;;;;4975573;28;92496;-62
2022/12/23 12:33:44;;;;;;;8.55;3.75;;;;;;;;;;4978111;28;92344;-62
2022/12/23 12:36:19;;;;;;;9.27;3.58;;;;;;;;;;4982658;28;91914;-62
2022/12/23 12:38:47;;;;;;;11.13;4.10;;;;;;;;;;4984437;28;92354;-62
2022/12/23 12:41:20;;;;;;;9.88;4.20;;;;;;;;;;4984449;28;92913;-62
2022/12/23 12:43:51;;;;;;;8.07;3.55;;;;;;;;;;4982824;28;95383;-63
2022/12/23 12:46:26;;;;;;;7.88;3.60;;;;;;;;;;4984407;28;92030;-62
2022/12/23 12:48:53;;;;;;;10.73;4.03;;;;;;;;;;4988202;28;92178;-62
2022/12/23 12:51:22;;;;;;;8.30;3.53;;;;;;;;;;4986993;28;92547;-62
2022/12/23 12:53:57;;;;;;;8.82;3.80;;;;;;;;;;4983551;28;92408;-61
2022/12/23 12:56:45;;;;;;;7.85;3.65;;;;;;;;;;4974543;28;92371;-64
2022/12/23 12:59:23;;;;;;;7.53;3.63;;;;;;;;;;4981003;28;92487;-63
2022/12/23 13:02:01;;;;;;;8.82;3.65;;;;;;;;;;4984677;28;92220;-64
2022/12/23 13:04:44;;;;;;;8.60;3.88;;;;;;;;;;4983371;28;93241;-64
2022/12/23 13:07:31;;;;;;;8.20;3.58;;;;;;;;;;4983551;28;92301;-64
2022/12/23 13:09:57;;;;;;;7.50;3.60;;;;;;;;;;4972804;28;94561;-63
2022/12/23 13:12:33;;;;;;;8.93;3.72;;;;;;;;;;4982547;28;92657;-64
2022/12/23 13:15:16;;;;;;;8.13;3.83;;;;;;;;;;4982624;28;92441;-64
2022/12/23 13:18:05;;;;;;;9.10;3.63;;;;;;;;;;4979974;28;92676;-63
2022/12/23 13:20:35;;;;;;;9.60;3.58;;;;;;;;;;4983157;28;92559;-61
2022/12/23 13:23:20;;;;;;;8.57;3.65;;;;;;;;;;4983069;28;93519;-64
2022/12/23 13:26:11;;;;;;;7.55;3.33;;;;;;;;;;4978648;28;93605;-62
2022/12/23 13:29:01;;;;;;;8.45;3.90;;;;;;;;;;4981972;28;91531;-64
2022/12/23 13:31:30;;;;;;;8.40;3.80;;;;;;;;;;4969724;28;92692;-62
2022/12/23 13:34:01;;;;;;;8.32;3.70;;;;;;;;;;4980106;28;92484;-62
2022/12/23 13:36:34;;;;;;;8.40;3.70;;;;;;;;;;4977765;28;94761;-62
2022/12/23 13:39:05;;;;;;;9.02;3.90;;;;;;;;;;4980554;28;95299;-62
2022/12/23 13:41:34;;;;;;;10.55;4.00;;;;;;;;;;4981272;28;94026;-62
2022/12/23 13:44:04;;;;;;;8.85;4.15;;;;;;;;;;4981689;28;92358;-62
2022/12/23 13:46:36;;;;;;;10.48;5.10;;;;;;;;;;4982073;28;92751;-62
2022/12/23 13:49:17;;;;;;;10.32;4.90;;;;;;;;;;4983067;28;92709;-63
2022/12/23 13:52:02;;;;;;;11.48;5.03;;;;;;;;;;4980734;28;92085;-62
2022/12/23 13:54:28;;;;;;;10.25;5.10;;;;;;;;;;4977238;28;92176;-63
2022/12/23 13:57:07;;;;;;;10.80;5.43;;;;;;;;;;4978016;28;92581;-62
2022/12/23 13:59:40;;;;;;;10.82;5.50;;;;;;;;;;4981842;28;92040;-62
2022/12/23 14:02:45;;;;;;;10.98;5.30;;;;;;;;;;4979631;28;95162;-62
2022/12/23 14:05:30;;;;;;;9.80;5.25;;;;;;;;;;4956808;28;92631;-62
2022/12/23 14:08:00;;;;;;;9.27;4.55;;;;;;;;;;4961920;28;92352;-62
2022/12/23 14:10:27;;;;;;;8.60;4.28;;;;;;;;;;4970485;28;92351;-62
2022/12/23 14:12:58;;;;;;;8.30;3.65;;;;;;;;;;4981563;28;92825;-62
2022/12/23 14:15:44;;;;;;;8.65;3.65;;;;;;;;;;4981451;28;92779;-61
2022/12/23 14:18:17;;;;;;;7.55;3.47;;;;;;;;;;4981724;28;92190;-62
2022/12/23 14:21:02;;;;;;;8.57;4.00;;;;;;;;;;4977871;28;92915;-61
2022/12/23 14:23:49;;;;;;;10.43;3.80;;;;;;;;;;4976368;28;92919;-61
2022/12/23 14:26:19;;;;;;;9.65;4.05;;;;;;;;;;4981694;28;91986;-63
2022/12/23 14:28:54;;;;;;;8.98;4.35;;;;;;;;;;4983061;28;94750;-60
2022/12/23 14:31:27;;;;;;;10.88;4.70;;;;;;;;;;4982350;28;92018;-62
2022/12/23 14:34:00;;;;;;;10.38;4.45;;;;;;;;;;4979731;28;93311;-63
2022/12/23 14:36:27;;;;;;;9.00;4.47;;;;;;;;;;4972038;28;92826;-63
2022/12/23 14:39:12;;;;;;;21.95;4.82;;;;;;;;;;4982296;28;92261;-63
2022/12/23 14:41:46;;;;;;;11.48;4.18;;;;;;;;;;4982832;28;92659;-63
2022/12/23 14:44:17;;;;;;;8.52;4.20;;;;;;;;;;4982556;28;93411;-65
2022/12/23 14:46:44;;;;;;;10.55;4.47;;;;;;;;;;4983215;28;91289;-62
2022/12/23 14:49:11;;;;;;;13.98;4.47;;;;;;;;;;4986161;28;92283;-63
2022/12/23 14:52:17;;;;;;;14.70;4.60;;;;;;;;;;4984704;28;93554;-62
2022/12/23 14:54:44;;;;;;;9.43;3.92;;;;;;;;;;4979642;28;94873;-61
2022/12/23 14:57:31;;;;;;;8.85;3.70;;;;;;;;;;4980660;28;92544;-64
2022/12/23 15:00:01;;;;;;;10.40;3.70;;;;;;;;;;4984609;28;92386;-62
2022/12/23 15:02:33;;;;;;;8.23;3.35;;;;;;;;;;4980363;28;92200;-63
2022/12/23 15:05:00;;;;;;;7.07;3.28;;;;;;;;;;4962301;28;92792;-64
2022/12/23 15:07:32;;;;;;;6.50;2.97;;;;;;;;;;4963204;28;92183;-63
2022/12/23 15:10:00;;;;;;;8.27;3.10;;;;;;;;;;4978949;28;92514;-63
2022/12/23 15:12:30;;;;;;;10.35;3.40;;;;;;;;;;4980762;28;92059;-61
2022/12/23 15:15:05;;;;;;;7.90;3.38;;;;;;;;;;4983539;28;92393;-61
2022/12/23 15:17:33;;;;;;;8.25;3.50;;;;;;;;;;4979838;28;92635;-63
2022/12/23 15:20:11;;;;;;;7.72;3.45;;;;;;;;;;4978979;28;95006;-63
2022/12/23 15:22:38;;;;;;;7.75;3.60;;;;;;;;;;4980552;28;97034;-62
2022/12/23 15:25:17;;;;;;;7.60;3.47;;;;;;;;;;4980764;28;93175;-63
2022/12/23 15:27:43;;;;;;;8.10;3.58;;;;;;;;;;4982083;28;91960;-64